< < Back
Terminal Aerodrome Forecast


Current Version              Previous Versions:   1  2  3  4  5  6  7  8  9  

Terminal Aerodrome Forecast

142
FTUS42 KILM 281700
TAFFLO
TAF
KFLO 281723Z 2818/2918 22006KT P6SM SKC
     FM290000 24004KT P6SM SKC
      TEMPO 2909/2911 5SM BR=



Latest METAR

398
SAUS70 KWBC 290300 RRE
MTRFLO
METAR KFLO 290253Z AUTO 21005KT 10SM CLR 25/17 A3002 RMK AO2 SLP161
T02500172 51015


USA.gov is the U.S. government's official web portal to all federal, state and local government web resources and services.